Time;durP1;ratioP1;P1;durP2;ratioP2;P2;SDS_P1;SDS_P2;PMS_P1;PMS_P2;Temp;Humidity;BMP_temperature;BMP_pressure;BME280_temperature;BME280_humidity;BME280_pressure;Samples;Min_cycle;Max_cycle;Signal;HPM_P1;HPM_P2
2023/10/24 00:00:03;;;;;;;14.30;5.32;;;12.00;99.90;;;;;;5027723;28;20088;-38
2023/10/24 00:02:38;;;;;;;8.07;4.70;;;12.00;99.90;;;;;;5026990;28;20050;-41
2023/10/24 00:05:06;;;;;;;8.75;5.30;;;12.00;99.90;;;;;;5028429;28;20041;-37
2023/10/24 00:07:34;;;;;;;9.43;4.53;;;12.00;99.90;;;;;;5029893;28;20076;-40
2023/10/24 00:10:02;;;;;;;7.55;4.30;;;12.00;99.90;;;;;;5030940;28;20092;-40
2023/10/24 00:12:30;;;;;;;7.55;4.50;;;12.00;99.90;;;;;;5032948;28;20049;-44
2023/10/24 00:14:57;;;;;;;7.43;4.00;;;12.00;99.90;;;;;;5034782;28;20099;-43
2023/10/24 00:17:24;;;;;;;8.55;5.15;;;12.00;99.90;;;;;;5027094;28;20061;-40
2023/10/24 00:19:51;;;;;;;7.32;4.15;;;12.00;99.90;;;;;;5023986;28;20054;-42
2023/10/24 00:22:18;;;;;;;9.40;4.78;;;12.00;99.90;;;;;;5027677;28;20037;-41
2023/10/24 00:24:46;;;;;;;8.02;4.20;;;12.00;99.90;;;;;;5026756;28;20056;-45
2023/10/24 00:27:12;;;;;;;7.93;4.70;;;12.00;99.90;;;;;;5027629;28;20056;-41
2023/10/24 00:29:39;;;;;;;8.00;4.38;;;12.00;99.90;;;;;;5027581;28;20042;-40
2023/10/24 00:32:06;;;;;;;10.93;5.13;;;12.00;99.90;;;;;;5027233;28;20040;-41
2023/10/24 00:34:34;;;;;;;10.32;4.88;;;12.10;99.90;;;;;;5026865;28;20552;-43
2023/10/24 00:37:03;;;;;;;8.43;4.28;;;12.10;99.90;;;;;;5026919;28;20048;-44
2023/10/24 00:39:30;;;;;;;9.27;4.50;;;12.10;99.90;;;;;;5027152;28;20045;-41
2023/10/24 00:41:57;;;;;;;11.10;4.40;;;12.10;99.90;;;;;;5026432;28;20041;-39
2023/10/24 00:44:27;;;;;;;9.90;4.30;;;12.10;99.90;;;;;;5027509;28;20084;-40
2023/10/24 00:46:55;;;;;;;9.98;3.88;;;12.10;99.90;;;;;;5028302;28;20075;-39
2023/10/24 00:49:22;;;;;;;8.25;4.10;;;12.00;99.90;;;;;;5026178;28;20513;-40
2023/10/24 00:51:49;;;;;;;7.53;4.35;;;12.10;99.90;;;;;;5027779;28;20044;-40
2023/10/24 00:54:16;;;;;;;11.65;4.53;;;12.10;99.90;;;;;;5026937;28;20469;-40
2023/10/24 00:56:46;;;;;;;7.60;4.25;;;12.10;99.90;;;;;;5027355;28;20075;-43
2023/10/24 00:59:16;;;;;;;10.63;4.78;;;12.10;99.90;;;;;;5025833;28;20056;-39
2023/10/24 01:01:44;;;;;;;10.93;4.68;;;12.10;99.90;;;;;;5027613;28;20045;-41
2023/10/24 01:04:12;;;;;;;6.65;4.45;;;12.20;99.90;;;;;;5027120;28;20049;-40
2023/10/24 01:06:39;;;;;;;7.53;4.60;;;12.20;99.90;;;;;;5030312;28;20093;-43
2023/10/24 01:09:06;;;;;;;7.82;4.70;;;12.20;99.90;;;;;;5029899;28;20065;-41
2023/10/24 01:11:33;;;;;;;11.88;5.30;;;12.20;99.90;;;;;;5028872;28;20087;-38
2023/10/24 01:14:02;;;;;;;9.35;5.00;;;12.30;99.90;;;;;;5028003;28;20095;-40
2023/10/24 01:16:32;;;;;;;7.85;5.10;;;12.30;99.90;;;;;;5027673;28;20045;-38
2023/10/24 01:19:00;;;;;;;9.43;5.43;;;12.20;99.90;;;;;;5033018;28;20069;-40
2023/10/24 01:21:26;;;;;;;11.40;5.30;;;12.20;99.90;;;;;;5041447;28;20099;-42
2023/10/24 01:23:55;;;;;;;7.25;5.18;;;12.20;99.90;;;;;;5034074;28;20046;-44
2023/10/24 01:26:25;;;;;;;12.40;5.35;;;12.20;99.90;;;;;;5030167;28;20045;-44
2023/10/24 01:28:53;;;;;;;9.00;5.53;;;12.20;99.90;;;;;;5033347;28;20068;-39
2023/10/24 01:31:20;;;;;;;8.63;5.65;;;12.20;99.90;;;;;;5033886;28;20467;-40
2023/10/24 01:33:47;;;;;;;9.82;5.78;;;12.20;99.90;;;;;;5030475;28;20037;-43
2023/10/24 01:36:14;;;;;;;9.95;5.93;;;12.20;99.90;;;;;;5029508;28;20045;-45
2023/10/24 01:38:41;;;;;;;9.02;5.53;;;12.20;99.90;;;;;;5031147;28;20041;-40
2023/10/24 01:41:08;;;;;;;10.65;5.70;;;12.20;99.90;;;;;;5029503;28;20092;-41
2023/10/24 01:43:36;;;;;;;10.15;6.10;;;12.20;99.90;;;;;;5029356;28;20041;-39
2023/10/24 01:46:03;;;;;;;9.00;5.65;;;12.20;99.90;;;;;;5030611;28;20041;-40
2023/10/24 01:48:31;;;;;;;11.10;6.18;;;12.30;99.90;;;;;;5037869;28;20053;-40
2023/10/24 01:50:58;;;;;;;11.07;5.47;;;12.20;99.90;;;;;;5038205;28;20057;-40
2023/10/24 01:53:25;;;;;;;7.75;5.75;;;12.20;99.90;;;;;;5035478;28;20068;-40
2023/10/24 01:55:53;;;;;;;9.93;5.72;;;12.20;99.90;;;;;;5031063;28;20065;-43
2023/10/24 01:58:20;;;;;;;9.38;5.03;;;12.10;99.90;;;;;;5027335;28;20393;-41
2023/10/24 02:00:47;;;;;;;9.75;5.22;;;12.20;99.90;;;;;;5027549;28;20052;-43
2023/10/24 02:03:14;;;;;;;8.68;5.10;;;12.20;99.90;;;;;;5027732;28;20061;-39
2023/10/24 02:05:41;;;;;;;10.10;5.18;;;12.10;99.90;;;;;;5030222;28;20099;-40
2023/10/24 02:08:08;;;;;;;7.68;5.25;;;12.10;99.90;;;;;;5033131;28;20120;-40
2023/10/24 02:10:35;;;;;;;10.52;5.28;;;12.10;99.90;;;;;;5032995;28;20050;-41
2023/10/24 02:13:02;;;;;;;8.68;4.75;;;12.10;99.90;;;;;;5029101;28;20042;-39
2023/10/24 02:15:29;;;;;;;7.13;4.95;;;12.10;99.90;;;;;;5028464;28;20426;-39
2023/10/24 02:17:57;;;;;;;8.30;5.05;;;12.10;99.90;;;;;;5030924;28;20132;-40
2023/10/24 02:20:24;;;;;;;7.85;5.30;;;12.10;99.90;;;;;;5031650;28;20052;-40
2023/10/24 02:22:52;;;;;;;8.88;5.90;;;12.10;99.90;;;;;;5025949;28;20091;-43
2023/10/24 02:25:19;;;;;;;8.00;5.40;;;12.10;99.90;;;;;;5026734;28;20037;-39
2023/10/24 02:27:48;;;;;;;7.82;5.10;;;12.00;99.90;;;;;;5025533;28;20055;-41
2023/10/24 02:30:15;;;;;;;9.32;4.95;;;12.00;99.90;;;;;;5028574;28;20075;-42
2023/10/24 02:32:42;;;;;;;8.75;5.60;;;12.00;99.90;;;;;;5028449;28;20777;-41
2023/10/24 02:35:09;;;;;;;9.10;5.38;;;12.00;99.90;;;;;;5023802;28;20049;-42
2023/10/24 02:37:36;;;;;;;7.38;4.45;;;12.00;99.90;;;;;;5027122;28;20038;-40
2023/10/24 02:40:05;;;;;;;9.55;4.90;;;12.00;99.90;;;;;;5027419;28;20041;-45
2023/10/24 02:42:33;;;;;;;9.20;5.15;;;12.00;99.90;;;;;;5025460;28;20049;-43
2023/10/24 02:45:00;;;;;;;8.30;5.03;;;12.00;99.90;;;;;;5025978;28;20514;-39
2023/10/24 02:47:28;;;;;;;6.90;4.80;;;12.00;99.90;;;;;;5024204;28;20057;-40
2023/10/24 02:49:55;;;;;;;8.05;5.28;;;12.00;99.90;;;;;;5030998;28;20061;-39
2023/10/24 02:52:22;;;;;;;9.00;5.35;;;12.00;99.90;;;;;;5032358;28;20540;-41
2023/10/24 02:54:49;;;;;;;7.68;5.03;;;12.00;99.90;;;;;;5033783;28;20104;-41
2023/10/24 02:57:17;;;;;;;8.55;5.70;;;12.00;99.90;;;;;;5020574;28;20061;-43
2023/10/24 02:59:44;;;;;;;9.25;5.55;;;12.00;99.90;;;;;;5027907;28;20075;-42
2023/10/24 03:02:12;;;;;;;10.00;5.30;;;12.00;99.90;;;;;;5030303;28;20048;-41
2023/10/24 03:04:40;;;;;;;10.10;5.55;;;12.00;99.90;;;;;;5034660;28;20034;-43
2023/10/24 03:07:08;;;;;;;7.75;5.10;;;12.00;99.90;;;;;;5034620;28;20055;-40
2023/10/24 03:09:36;;;;;;;9.48;5.05;;;12.00;99.90;;;;;;5033870;28;20671;-42
2023/10/24 03:12:08;;;;;;;7.22;4.38;;;12.00;99.90;;;;;;5031939;28;20065;-42
2023/10/24 03:14:36;;;;;;;8.23;5.05;;;12.10;99.90;;;;;;5032071;28;20034;-42
2023/10/24 03:17:03;;;;;;;10.45;4.65;;;12.10;99.90;;;;;;5033461;28;20045;-40
2023/10/24 03:19:32;;;;;;;8.45;4.50;;;12.10;99.90;;;;;;5030897;28;20057;-42
2023/10/24 03:22:00;;;;;;;10.48;5.35;;;12.10;99.90;;;;;;5034027;28;20673;-40
2023/10/24 03:24:31;;;;;;;11.27;5.70;;;12.10;99.90;;;;;;5032037;28;20114;-41
2023/10/24 03:26:58;;;;;;;11.02;5.63;;;12.10;99.90;;;;;;5035572;28;20029;-40
2023/10/24 03:29:25;;;;;;;12.57;5.82;;;12.10;99.90;;;;;;5027674;28;20048;-45
2023/10/24 03:31:52;;;;;;;12.45;5.63;;;12.10;99.90;;;;;;5032308;28;20124;-42
2023/10/24 03:34:19;;;;;;;11.35;5.25;;;12.10;99.90;;;;;;5028892;28;20037;-45
2023/10/24 03:36:46;;;;;;;10.82;5.53;;;12.10;99.90;;;;;;5027122;28;20046;-41
2023/10/24 03:39:13;;;;;;;8.45;5.28;;;12.10;99.90;;;;;;5036133;28;20129;-41
2023/10/24 03:41:40;;;;;;;10.35;5.55;;;12.10;99.90;;;;;;5030277;28;20449;-43
2023/10/24 03:44:07;;;;;;;10.20;5.10;;;12.20;99.90;;;;;;5039222;28;20084;-40
2023/10/24 03:46:34;;;;;;;10.93;6.15;;;12.10;99.90;;;;;;5034429;28;20145;-40
2023/10/24 03:49:02;;;;;;;11.23;5.65;;;12.20;99.90;;;;;;5033166;28;20045;-44
2023/10/24 03:51:29;;;;;;;10.05;6.28;;;12.20;99.90;;;;;;5016279;28;20111;-41
2023/10/24 03:53:56;;;;;;;12.48;6.90;;;12.20;99.90;;;;;;5031527;28;20514;-44
2023/10/24 03:56:23;;;;;;;14.50;6.70;;;12.10;99.90;;;;;;5029179;28;20076;-42
2023/10/24 03:58:49;;;;;;;9.85;6.13;;;12.20;99.90;;;;;;5029190;28;20261;-43
2023/10/24 04:01:16;;;;;;;13.48;6.18;;;12.20;99.90;;;;;;5029506;28;20065;-39
2023/10/24 04:03:43;;;;;;;12.13;6.30;;;12.20;99.90;;;;;;5032296;28;20064;-41
2023/10/24 04:06:11;;;;;;;14.73;6.18;;;12.20;99.90;;;;;;5035555;28;20070;-40
2023/10/24 04:08:39;;;;;;;10.40;6.57;;;12.20;99.90;;;;;;5036086;28;20041;-40
2023/10/24 04:11:16;;;;;;;11.27;6.32;;;12.20;99.90;;;;;;5036306;28;20046;-39
2023/10/24 04:13:45;;;;;;;9.75;5.90;;;12.20;99.90;;;;;;5032356;28;20088;-41
2023/10/24 04:16:13;;;;;;;9.18;6.35;;;12.20;99.90;;;;;;5027066;28;20510;-40
2023/10/24 04:18:40;;;;;;;10.45;6.75;;;12.20;99.90;;;;;;5030747;28;20045;-39
2023/10/24 04:21:07;;;;;;;23.85;14.18;;;12.20;99.90;;;;;;5027653;28;20056;-41
2023/10/24 04:23:34;;;;;;;12.20;7.70;;;12.20;99.90;;;;;;5029413;28;20560;-42
2023/10/24 04:26:04;;;;;;;12.52;7.68;;;12.20;99.90;;;;;;5032755;28;20030;-41
2023/10/24 04:28:31;;;;;;;10.27;7.53;;;12.20;99.90;;;;;;5032562;28;20060;-42
2023/10/24 04:30:58;;;;;;;15.18;8.23;;;12.20;99.90;;;;;;5032551;28;20041;-42
2023/10/24 04:33:25;;;;;;;12.85;8.38;;;12.20;99.90;;;;;;5029258;28;20553;-40
2023/10/24 04:35:52;;;;;;;14.38;8.02;;;12.20;99.90;;;;;;5029646;28;20060;-39
2023/10/24 04:38:19;;;;;;;12.02;7.22;;;12.10;99.90;;;;;;5032258;28;20046;-44
2023/10/24 04:40:49;;;;;;;10.63;5.88;;;12.10;99.90;;;;;;5029103;28;20135;-42
2023/10/24 04:43:16;;;;;;;14.27;7.07;;;12.10;99.90;;;;;;5025603;28;20195;-42
2023/10/24 04:45:44;;;;;;;11.80;7.03;;;12.10;99.90;;;;;;5027703;28;20092;-43
2023/10/24 04:48:11;;;;;;;12.90;6.57;;;12.00;99.90;;;;;;5027704;28;20129;-40
2023/10/24 04:50:39;;;;;;;10.00;6.13;;;12.00;99.90;;;;;;5025750;28;20160;-41
2023/10/24 04:53:06;;;;;;;11.57;6.85;;;12.00;99.90;;;;;;5026170;28;20038;-40
2023/10/24 04:55:35;;;;;;;15.20;8.05;;;12.00;99.90;;;;;;5029220;28;20104;-42
2023/10/24 04:58:03;;;;;;;20.58;10.38;;;12.00;99.90;;;;;;5021891;28;20048;-40
2023/10/24 05:00:30;;;;;;;14.10;7.88;;;12.00;99.90;;;;;;5025565;28;20080;-44
2023/10/24 05:02:57;;;;;;;12.63;7.82;;;12.00;99.90;;;;;;5027859;28;20089;-40
2023/10/24 05:05:24;;;;;;;13.38;8.35;;;12.00;99.90;;;;;;5027947;28;20064;-41
2023/10/24 05:07:51;;;;;;;17.10;10.90;;;12.00;99.90;;;;;;5025824;28;20410;-39
2023/10/24 05:10:20;;;;;;;13.23;8.60;;;12.00;99.90;;;;;;5022211;28;20048;-38
2023/10/24 05:12:46;;;;;;;13.57;6.65;;;11.90;99.90;;;;;;5027113;28;20196;-39
2023/10/24 05:15:13;;;;;;;11.07;6.95;;;11.90;99.90;;;;;;5030341;28;20538;-39
2023/10/24 05:17:40;;;;;;;12.30;6.57;;;12.00;99.90;;;;;;5032857;28;20073;-43
2023/10/24 05:20:08;;;;;;;11.18;6.25;;;11.90;99.90;;;;;;5035229;28;20767;-40
2023/10/24 05:22:35;;;;;;;11.98;6.43;;;12.00;99.90;;;;;;5034122;28;20041;-43
2023/10/24 05:25:02;;;;;;;14.75;8.75;;;11.90;99.90;;;;;;5030903;28;20533;-40
2023/10/24 05:27:31;;;;;;;15.30;7.35;;;11.90;99.90;;;;;;5031793;28;20116;-40
2023/10/24 05:29:58;;;;;;;13.48;7.03;;;11.90;99.90;;;;;;5030749;28;20200;-39
2023/10/24 05:32:25;;;;;;;15.10;7.10;;;11.90;99.90;;;;;;5030972;28;20170;-39
2023/10/24 05:34:53;;;;;;;10.68;6.50;;;11.90;99.90;;;;;;5030896;28;20061;-40
2023/10/24 05:37:20;;;;;;;14.95;8.52;;;11.80;99.90;;;;;;5031014;28;20117;-39
2023/10/24 05:39:47;;;;;;;12.02;7.95;;;11.80;99.90;;;;;;5037788;28;20044;-40
2023/10/24 05:42:14;;;;;;;13.60;8.25;;;11.70;99.90;;;;;;5034556;28;20037;-41
2023/10/24 05:44:40;;;;;;;10.45;7.57;;;11.70;99.90;;;;;;5026318;28;20335;-41
2023/10/24 05:47:08;;;;;;;12.48;8.00;;;11.70;99.90;;;;;;5023889;28;20052;-38
2023/10/24 05:49:35;;;;;;;15.70;8.93;;;11.70;99.90;;;;;;5025548;28;20040;-42
2023/10/24 05:52:02;;;;;;;12.38;8.52;;;11.70;99.90;;;;;;5029662;28;20046;-39
2023/10/24 05:54:29;;;;;;;12.10;8.30;;;11.70;99.90;;;;;;5027057;28;20073;-39
2023/10/24 05:56:56;;;;;;;12.05;7.90;;;11.70;99.90;;;;;;5027033;28;20481;-43
2023/10/24 05:59:26;;;;;;;13.10;8.93;;;11.70;99.90;;;;;;5025021;28;20046;-40
2023/10/24 06:01:53;;;;;;;13.73;8.73;;;11.80;99.90;;;;;;5032344;28;20059;-43
2023/10/24 06:04:20;;;;;;;17.20;11.15;;;11.80;99.90;;;;;;5029891;28;20061;-40
2023/10/24 06:06:47;;;;;;;68.30;35.53;;;11.80;99.90;;;;;;5031642;28;20510;-46
2023/10/24 06:09:14;;;;;;;30.02;18.20;;;11.80;99.90;;;;;;5036433;28;20104;-42
2023/10/24 06:11:41;;;;;;;20.75;12.68;;;11.80;99.90;;;;;;5031824;28;20378;-42
2023/10/24 06:14:08;;;;;;;12.90;8.57;;;11.90;99.90;;;;;;5029760;28;20041;-40
2023/10/24 06:16:35;;;;;;;15.88;9.50;;;11.90;99.90;;;;;;5030239;28;20050;-42
2023/10/24 06:19:02;;;;;;;21.10;13.27;;;11.80;99.90;;;;;;5028630;28;20563;-44
2023/10/24 06:21:29;;;;;;;18.77;12.85;;;11.90;99.90;;;;;;5035101;28;20539;-40
2023/10/24 06:23:56;;;;;;;22.17;13.55;;;11.90;99.90;;;;;;5033992;28;20049;-39
2023/10/24 06:26:23;;;;;;;19.42;13.10;;;12.00;99.90;;;;;;5024854;28;20041;-43
2023/10/24 06:28:50;;;;;;;36.88;22.20;;;12.10;99.90;;;;;;5028026;28;20092;-39
2023/10/24 06:31:17;;;;;;;28.48;16.27;;;12.10;99.90;;;;;;5030281;28;20104;-42
2023/10/24 06:33:45;;;;;;;19.75;11.98;;;12.20;99.90;;;;;;5024290;28;20432;-40
2023/10/24 06:36:12;;;;;;;16.52;11.05;;;12.20;99.90;;;;;;5026343;28;20104;-44
2023/10/24 06:38:39;;;;;;;15.90;9.02;;;12.30;99.90;;;;;;5024231;28;20122;-40
2023/10/24 06:41:08;;;;;;;18.85;10.68;;;12.30;99.90;;;;;;5021472;28;20042;-42
2023/10/24 06:43:35;;;;;;;18.38;13.40;;;12.30;99.90;;;;;;5028035;28;20119;-41
2023/10/24 06:46:04;;;;;;;16.33;10.45;;;12.40;99.90;;;;;;5027538;28;20048;-39
2023/10/24 06:48:31;;;;;;;15.07;10.18;;;12.40;99.90;;;;;;5028498;28;20135;-42
2023/10/24 06:50:59;;;;;;;19.35;10.50;;;12.50;99.90;;;;;;5029234;28;20049;-45
2023/10/24 06:53:26;;;;;;;17.90;8.65;;;12.50;99.90;;;;;;5028620;28;20080;-42
2023/10/24 06:56:00;;;;;;;17.85;10.25;;;12.40;99.90;;;;;;5026923;28;20137;-42
2023/10/24 06:58:27;;;;;;;18.13;12.48;;;12.40;99.90;;;;;;5031993;28;20049;-43
2023/10/24 07:00:54;;;;;;;14.90;9.05;;;12.50;99.90;;;;;;5032853;28;20053;-41
2023/10/24 07:03:22;;;;;;;16.42;8.60;;;12.50;99.90;;;;;;5034369;28;20049;-42
2023/10/24 07:05:52;;;;;;;13.02;8.02;;;12.60;99.90;;;;;;5029290;28;20037;-44
2023/10/24 07:08:20;;;;;;;12.35;7.85;;;12.60;99.90;;;;;;5029110;28;20040;-44
2023/10/24 07:10:48;;;;;;;12.02;7.93;;;12.60;99.90;;;;;;5029862;28;20092;-40
2023/10/24 07:13:16;;;;;;;11.10;8.38;;;12.60;99.90;;;;;;5028837;28;20046;-39
2023/10/24 07:15:44;;;;;;;16.13;9.27;;;12.70;99.90;;;;;;5029639;28;20109;-44
2023/10/24 07:18:11;;;;;;;16.15;9.13;;;12.70;99.90;;;;;;5028406;28;20128;-40
2023/10/24 07:20:38;;;;;;;13.07;8.73;;;12.70;99.90;;;;;;5030262;28;20076;-39
2023/10/24 07:23:06;;;;;;;13.15;7.88;;;12.70;99.90;;;;;;5031539;28;20065;-42
2023/10/24 07:25:33;;;;;;;15.27;8.48;;;12.80;99.90;;;;;;5030432;28;20453;-41
2023/10/24 07:28:01;;;;;;;12.20;8.45;;;12.80;99.90;;;;;;5032712;28;20108;-43
2023/10/24 07:30:31;;;;;;;13.15;8.73;;;12.90;99.90;;;;;;5035475;28;20101;-41
2023/10/24 07:32:58;;;;;;;14.43;7.93;;;12.90;99.90;;;;;;5037327;28;20045;-43
2023/10/24 07:35:26;;;;;;;16.83;9.13;;;12.90;99.90;;;;;;5038449;28;20344;-43
2023/10/24 07:37:53;;;;;;;13.43;9.38;;;13.00;99.90;;;;;;5042240;28;20105;-44
2023/10/24 07:40:21;;;;;;;10.50;7.80;;;13.00;99.90;;;;;;5040986;28;20418;-43
2023/10/24 07:42:48;;;;;;;19.08;9.05;;;13.10;99.90;;;;;;5029942;28;20132;-44
2023/10/24 07:45:15;;;;;;;14.02;8.93;;;13.10;99.90;;;;;;5029271;28;20041;-41
2023/10/24 07:47:42;;;;;;;13.05;8.02;;;13.20;99.90;;;;;;5030027;28;20045;-44
2023/10/24 07:50:10;;;;;;;12.82;7.75;;;13.20;99.90;;;;;;5031150;28;20563;-39
2023/10/24 07:52:37;;;;;;;13.48;7.85;;;13.30;99.90;;;;;;5029832;28;20057;-41
2023/10/24 07:55:05;;;;;;;12.65;7.68;;;13.40;99.90;;;;;;5029309;28;20046;-45
2023/10/24 07:57:33;;;;;;;13.93;8.30;;;13.40;99.90;;;;;;5031597;28;20107;-40
2023/10/24 08:00:00;;;;;;;13.50;8.15;;;13.50;99.90;;;;;;5028980;28;20041;-42
2023/10/24 08:02:27;;;;;;;11.63;8.02;;;13.40;99.90;;;;;;5029758;28;20059;-43
2023/10/24 08:04:55;;;;;;;13.68;8.25;;;13.40;99.90;;;;;;5029065;28;20073;-43
2023/10/24 08:07:22;;;;;;;12.60;7.88;;;13.40;99.90;;;;;;5034711;28;20072;-43
2023/10/24 08:09:49;;;;;;;12.23;8.00;;;13.40;99.90;;;;;;5033408;28;20052;-41
2023/10/24 08:12:16;;;;;;;13.23;8.13;;;13.30;99.90;;;;;;5039238;28;20057;-43
2023/10/24 08:14:43;;;;;;;14.18;8.00;;;13.40;99.90;;;;;;5030425;28;20050;-41
2023/10/24 08:17:10;;;;;;;12.10;8.13;;;13.40;99.90;;;;;;5030033;28;20126;-42
2023/10/24 08:19:37;;;;;;;17.15;8.95;;;13.40;99.90;;;;;;5029082;28;20159;-45
2023/10/24 08:22:05;;;;;;;15.30;8.50;;;13.50;99.90;;;;;;5027831;28;20528;-41
2023/10/24 08:24:32;;;;;;;16.17;9.05;;;13.40;99.90;;;;;;5022736;28;20045;-43
2023/10/24 08:26:59;;;;;;;10.43;7.53;;;13.50;99.90;;;;;;5030393;28;20587;-42
2023/10/24 08:29:39;;;;;;;11.38;8.02;;;13.60;99.90;;;;;;5032265;28;20041;-41
2023/10/24 08:32:08;;;;;;;14.15;8.98;;;13.70;99.90;;;;;;5033683;28;20131;-43
2023/10/24 08:34:42;;;;;;;14.35;9.20;;;13.80;99.90;;;;;;5030025;28;21749;-44
2023/10/24 08:37:11;;;;;;;13.75;8.82;;;13.90;99.90;;;;;;5031356;28;20123;-42
2023/10/24 08:39:38;;;;;;;13.48;8.88;;;13.90;99.90;;;;;;5028741;28;20560;-40
2023/10/24 08:42:08;;;;;;;16.70;8.63;;;14.00;99.90;;;;;;5031140;28;20045;-42
2023/10/24 08:44:35;;;;;;;18.60;9.02;;;14.10;99.90;;;;;;5029523;28;20084;-40
2023/10/24 08:47:04;;;;;;;16.00;9.52;;;14.10;99.90;;;;;;5030474;28;20041;-42
2023/10/24 08:49:32;;;;;;;10.73;8.23;;;14.10;99.90;;;;;;5030967;28;20125;-38
2023/10/24 08:51:59;;;;;;;14.65;8.90;;;14.10;99.90;;;;;;5030178;28;20044;-42
2023/10/24 08:54:37;;;;;;;14.15;8.90;;;14.10;99.90;;;;;;5030810;28;20042;-42
2023/10/24 08:57:04;;;;;;;15.00;8.20;;;14.10;99.90;;;;;;5031065;28;20065;-42
2023/10/24 08:59:37;;;;;;;16.35;9.13;;;14.10;99.90;;;;;;5031701;28;20077;-41
2023/10/24 09:02:04;;;;;;;16.00;9.30;;;14.10;99.90;;;;;;5032115;28;20045;-47
2023/10/24 09:04:34;;;;;;;16.05;9.90;;;14.10;99.90;;;;;;5034396;28;20053;-42
2023/10/24 09:07:01;;;;;;;13.52;8.43;;;14.00;99.90;;;;;;5031463;28;20075;-41
2023/10/24 09:09:28;;;;;;;11.00;8.88;;;14.10;99.90;;;;;;5034458;28;20758;-44
2023/10/24 09:11:58;;;;;;;16.67;10.60;;;14.20;99.90;;;;;;5023981;28;20041;-40
2023/10/24 09:14:28;;;;;;;13.88;8.80;;;14.30;99.90;;;;;;5032315;28;20065;-41
2023/10/24 09:17:15;;;;;;;14.77;9.20;;;14.30;99.90;;;;;;5036387;28;20204;-41
2023/10/24 09:19:43;;;;;;;15.10;9.75;;;14.30;99.90;;;;;;5038771;28;20272;-42
2023/10/24 09:22:16;;;;;;;13.25;9.50;;;14.30;99.90;;;;;;5037181;28;20091;-43
2023/10/24 09:24:47;;;;;;;16.92;10.23;;;14.30;99.90;;;;;;5034661;28;20944;-39
2023/10/24 09:27:16;;;;;;;13.95;9.82;;;14.20;99.90;;;;;;5032064;28;20422;-41
2023/10/24 09:29:43;;;;;;;14.15;9.02;;;14.10;99.90;;;;;;5032602;28;20179;-39
2023/10/24 09:32:17;;;;;;;13.38;9.30;;;14.10;99.90;;;;;;5032382;28;20053;-39
2023/10/24 09:34:47;;;;;;;14.93;9.75;;;14.10;99.90;;;;;;5032617;28;20068;-46
2023/10/24 09:37:15;;;;;;;16.55;10.77;;;14.10;99.90;;;;;;5031976;28;20038;-41
2023/10/24 09:39:57;;;;;;;18.75;9.95;;;14.10;99.90;;;;;;5032593;28;20074;-39
2023/10/24 09:42:26;;;;;;;17.27;9.90;;;14.10;99.90;;;;;;5029089;28;20447;-40
2023/10/24 09:45:01;;;;;;;17.38;10.38;;;14.10;99.90;;;;;;5031969;28;20118;-42
2023/10/24 09:47:31;;;;;;;16.05;9.50;;;14.20;99.90;;;;;;5029119;28;20065;-45
2023/10/24 09:49:59;;;;;;;17.67;10.05;;;14.10;99.90;;;;;;5032127;28;20033;-41
2023/10/24 09:52:28;;;;;;;18.85;10.73;;;14.20;99.90;;;;;;5029966;28;20083;-41
2023/10/24 09:54:58;;;;;;;21.05;15.15;;;14.10;99.90;;;;;;5028025;28;20150;-44
2023/10/24 09:57:27;;;;;;;14.10;10.40;;;14.10;99.90;;;;;;5027469;28;20052;-46
2023/10/24 09:59:58;;;;;;;14.82;9.57;;;14.00;99.90;;;;;;5027406;28;20195;-39
2023/10/24 10:02:26;;;;;;;13.45;9.77;;;14.00;99.90;;;;;;5030079;28;20042;-40
2023/10/24 10:04:54;;;;;;;15.30;10.18;;;14.00;99.90;;;;;;5027318;28;20521;-42
2023/10/24 10:07:25;;;;;;;13.98;10.65;;;14.00;99.90;;;;;;5032183;28;20049;-43
2023/10/24 10:09:54;;;;;;;15.65;10.65;;;13.80;99.90;;;;;;5026567;28;20091;-45
2023/10/24 10:12:22;;;;;;;17.38;10.85;;;13.90;99.90;;;;;;5026697;28;20474;-38
2023/10/24 10:15:08;;;;;;;13.90;10.75;;;14.00;99.90;;;;;;5024993;28;20041;-40
2023/10/24 10:18:21;;;;;;;23.80;17.10;;;13.90;99.90;;;;;;5033019;28;20053;-43
2023/10/24 10:21:06;;;;;;;16.02;10.32;;;14.00;99.90;;;;;;5016248;28;20111;-39
2023/10/24 10:24:01;;;;;;;18.95;10.15;;;14.10;99.90;;;;;;5033838;28;20111;-38
2023/10/24 10:27:04;;;;;;;20.83;10.88;;;14.20;99.90;;;;;;5029419;28;20046;-40
2023/10/24 10:29:51;;;;;;;15.13;10.60;;;14.10;99.90;;;;;;4969706;28;20042;-44
2023/10/24 10:32:45;;;;;;;16.10;10.43;;;14.10;99.90;;;;;;4973978;28;20051;-41
2023/10/24 10:35:53;;;;;;;18.25;11.32;;;14.20;99.90;;;;;;4968041;28;20046;-44
2023/10/24 10:38:43;;;;;;;16.45;10.10;;;14.20;99.90;;;;;;4971373;28;20042;-42
2023/10/24 10:41:21;;;;;;;22.48;12.98;;;14.20;99.90;;;;;;4968406;28;20054;-43
2023/10/24 10:43:58;;;;;;;25.27;16.90;;;14.20;99.90;;;;;;4966058;28;20058;-41
2023/10/24 10:46:26;;;;;;;17.27;11.85;;;14.20;99.90;;;;;;4977482;28;20047;-43
2023/10/24 10:49:03;;;;;;;15.05;11.15;;;14.20;99.90;;;;;;4971130;28;20185;-39
2023/10/24 10:51:37;;;;;;;14.88;9.85;;;14.10;99.90;;;;;;4955745;28;20093;-43
2023/10/24 10:54:37;;;;;;;17.83;10.43;;;14.20;99.90;;;;;;4970615;28;20050;-42
2023/10/24 10:57:05;;;;;;;12.40;9.90;;;14.10;99.90;;;;;;4975851;28;20273;-42
2023/10/24 10:59:37;;;;;;;15.35;11.43;;;14.10;99.90;;;;;;4978309;28;20056;-44
2023/10/24 11:02:48;;;;;;;17.33;13.30;;;14.00;99.90;;;;;;4978364;28;20042;-42
2023/10/24 11:05:37;;;;;;;19.33;13.73;;;14.00;99.90;;;;;;4971309;28;20055;-39
2023/10/24 11:08:08;;;;;;;23.00;14.13;;;14.00;99.90;;;;;;5035120;28;20049;-41
2023/10/24 11:10:56;;;;;;;20.25;13.15;;;14.00;99.90;;;;;;5036131;28;22045;-42
2023/10/24 11:13:43;;;;;;;20.25;12.48;;;14.00;99.90;;;;;;5038897;28;20065;-43
2023/10/24 11:16:15;;;;;;;18.70;12.82;;;14.00;99.90;;;;;;5039942;28;20106;-40
2023/10/24 11:19:03;;;;;;;21.17;14.32;;;14.00;99.90;;;;;;5037190;28;20048;-40
2023/10/24 11:21:34;;;;;;;21.30;14.05;;;14.00;99.90;;;;;;5039266;28;20506;-39
2023/10/24 11:24:02;;;;;;;28.88;17.60;;;13.90;99.90;;;;;;5040246;28;20064;-39
2023/10/24 11:26:30;;;;;;;20.35;13.65;;;13.90;99.90;;;;;;5037605;28;20129;-40
2023/10/24 11:28:58;;;;;;;22.35;15.15;;;13.70;99.90;;;;;;5037263;28;20073;-38
2023/10/24 11:31:26;;;;;;;17.10;12.55;;;13.70;99.90;;;;;;5026128;28;20045;-42
2023/10/24 11:33:54;;;;;;;22.38;13.98;;;13.80;99.90;;;;;;5028774;28;20076;-38
2023/10/24 11:36:21;;;;;;;19.73;12.60;;;13.80;99.90;;;;;;5026804;28;20572;-40
2023/10/24 11:38:48;;;;;;;17.88;11.70;;;13.70;99.90;;;;;;5027036;28;20068;-41
2023/10/24 11:41:15;;;;;;;15.57;12.70;;;13.50;99.90;;;;;;5025017;28;20498;-39
2023/10/24 11:43:45;;;;;;;20.75;12.68;;;13.50;99.90;;;;;;5027089;28;20121;-38
2023/10/24 11:46:12;;;;;;;17.38;12.52;;;13.40;99.90;;;;;;5026722;28;20044;-37
2023/10/24 11:48:39;;;;;;;18.73;12.23;;;13.40;99.90;;;;;;5026531;28;20039;-39
2023/10/24 11:51:08;;;;;;;20.52;13.45;;;13.40;99.90;;;;;;5027044;28;20113;-39
2023/10/24 11:53:35;;;;;;;19.80;13.02;;;13.20;99.90;;;;;;5027385;28;20107;-40
2023/10/24 11:56:02;;;;;;;20.58;14.25;;;13.10;99.90;;;;;;5029716;28;20549;-39
2023/10/24 11:58:31;;;;;;;22.70;14.13;;;13.00;99.90;;;;;;5029347;28;20049;-41
2023/10/24 12:01:00;;;;;;;19.73;14.52;;;13.00;99.90;;;;;;5025416;28;20041;-37
2023/10/24 12:03:47;;;;;;;22.50;14.25;;;13.00;99.90;;;;;;5028490;28;20041;-39
2023/10/24 12:06:18;;;;;;;21.90;14.57;;;13.00;99.90;;;;;;5033631;28;20111;-38
2023/10/24 12:08:47;;;;;;;31.73;15.60;;;13.10;99.90;;;;;;5034642;28;20042;-40
2023/10/24 12:11:15;;;;;;;26.10;16.23;;;13.00;99.90;;;;;;5038469;28;20053;-40
2023/10/24 12:13:42;;;;;;;22.88;16.30;;;13.10;99.90;;;;;;5035037;28;20164;-39
2023/10/24 12:16:09;;;;;;;24.33;15.82;;;13.10;99.90;;;;;;5024230;28;20044;-40
2023/10/24 12:18:38;;;;;;;24.65;16.77;;;13.00;99.90;;;;;;5027514;28;20055;-39
2023/10/24 12:21:07;;;;;;;26.25;16.20;;;13.00;99.90;;;;;;5025665;28;20037;-37
2023/10/24 12:23:38;;;;;;;22.00;16.38;;;13.00;99.90;;;;;;5027341;28;20052;-38
2023/10/24 12:26:05;;;;;;;22.42;16.27;;;12.90;99.90;;;;;;5026809;28;20120;-40
2023/10/24 12:28:34;;;;;;;27.80;17.70;;;12.90;99.90;;;;;;5026548;28;20045;-37
2023/10/24 12:31:02;;;;;;;23.75;16.45;;;12.90;99.90;;;;;;5030053;28;20126;-38
2023/10/24 12:33:29;;;;;;;22.63;16.23;;;12.90;99.90;;;;;;5028479;28;20447;-38
2023/10/24 12:35:56;;;;;;;22.52;16.85;;;12.90;99.90;;;;;;5033436;28;20108;-39
2023/10/24 12:38:27;;;;;;;21.48;16.17;;;12.90;99.90;;;;;;5018743;28;20057;-39
2023/10/24 12:40:54;;;;;;;22.38;15.70;;;13.00;99.90;;;;;;5031889;28;20046;-40
2023/10/24 12:43:21;;;;;;;23.35;16.05;;;13.00;99.90;;;;;;5026982;28;20045;-37
2023/10/24 12:45:50;;;;;;;21.02;16.08;;;13.00;99.90;;;;;;5024781;28;20049;-39